createdAt,value
2017-04-11T00:00:42.652Z,5.60
2017-04-11T00:01:41.852Z,5.50
2017-04-11T00:02:41.084Z,5.50
2017-04-11T00:03:39.485Z,5.50
2017-04-11T00:04:37.837Z,5.60
2017-04-11T00:05:36.416Z,5.50
2017-04-11T00:06:34.815Z,5.50
2017-04-11T00:07:33.940Z,5.50
2017-04-11T00:08:32.392Z,5.50
2017-04-11T00:09:30.794Z,5.60
2017-04-11T00:10:29.168Z,5.50
2017-04-11T00:11:27.544Z,5.60
2017-04-11T00:12:26.064Z,5.70
2017-04-11T00:13:24.492Z,5.70
2017-04-11T00:14:22.864Z,5.60
2017-04-11T00:15:22.068Z,5.50
2017-04-11T00:16:21.286Z,5.50
2017-04-11T00:17:19.655Z,5.50
2017-04-11T00:18:18.041Z,5.60
2017-04-11T00:19:16.399Z,5.40
2017-04-11T00:20:14.772Z,5.40
2017-04-11T00:21:13.147Z,5.30
2017-04-11T00:22:11.548Z,5.40
2017-04-11T00:23:10.130Z,5.40
2017-04-11T00:24:08.633Z,5.30
2017-04-11T00:25:07.024Z,5.30
2017-04-11T00:26:06.158Z,5.20
2017-04-11T00:27:04.648Z,5.10
2017-04-11T00:28:03.820Z,5.10
2017-04-11T00:29:02.189Z,5.10
2017-04-11T00:30:00.714Z,5.20
2017-04-11T00:30:59.104Z,5.20
2017-04-11T00:31:57.538Z,5.10
2017-04-11T00:32:55.964Z,5.10
2017-04-11T00:33:54.324Z,5.10
2017-04-11T00:34:54.227Z,5.00
2017-04-11T00:35:52.640Z,5.00
2017-04-11T00:36:51.753Z,5.10
2017-04-11T00:37:50.955Z,5.10
2017-04-11T00:38:49.797Z,5.00
2017-04-11T00:39:48.179Z,5.00
2017-04-11T00:40:46.593Z,5.00
2017-04-11T00:42:45.344Z,5.80
2017-04-11T00:43:44.499Z,5.10
2017-04-11T00:44:42.938Z,5.10
2017-04-11T00:45:42.820Z,5.10
2017-04-11T00:46:41.186Z,5.10
2017-04-11T00:47:39.572Z,5.20
2017-04-11T00:48:37.924Z,5.20
2017-04-11T00:49:36.348Z,5.20
2017-04-11T00:50:34.759Z,5.20
2017-04-11T00:51:33.121Z,5.20
2017-04-11T00:52:31.528Z,5.20
2017-04-11T00:53:29.938Z,5.20
2017-04-11T00:54:28.310Z,5.20
2017-04-11T00:55:26.681Z,5.20
2017-04-11T00:56:25.081Z,5.30
2017-04-11T00:57:23.721Z,5.30
2017-04-11T00:58:22.846Z,5.30
2017-04-11T00:59:21.281Z,5.30
2017-04-11T01:00:19.681Z,5.30
2017-04-11T01:01:18.049Z,5.30
2017-04-11T01:02:17.221Z,5.30
2017-04-11T01:03:15.574Z,5.20
2017-04-11T01:04:14.920Z,5.20
2017-04-11T01:05:13.324Z,5.20
2017-04-11T01:06:11.702Z,5.20
2017-04-11T01:07:10.108Z,5.20
2017-04-11T01:08:08.488Z,5.20
2017-04-11T01:09:06.841Z,5.20
2017-04-11T01:10:05.996Z,5.20
2017-04-11T01:11:04.430Z,5.10
2017-04-11T01:12:03.589Z,5.10
2017-04-11T01:13:02.046Z,5.10
2017-04-11T01:14:00.958Z,5.10
2017-04-11T01:14:59.323Z,5.20
2017-04-11T01:15:58.711Z,5.20
2017-04-11T01:16:57.098Z,5.20
2017-04-11T01:17:55.497Z,5.30
2017-04-11T01:18:53.967Z,5.30
2017-04-11T01:19:52.397Z,5.30
2017-04-11T01:20:51.512Z,5.30
2017-04-11T01:21:50.633Z,5.30
2017-04-11T01:22:49.881Z,5.30
2017-04-11T01:23:49.031Z,5.30
2017-04-11T01:24:47.419Z,5.30
2017-04-11T01:25:45.808Z,5.30
2017-04-11T01:26:44.941Z,5.40
2017-04-11T01:27:43.282Z,5.30
2017-04-11T01:28:41.666Z,5.50
2017-04-11T01:29:40.016Z,5.50
2017-04-11T01:30:38.347Z,5.50
2017-04-11T01:31:36.803Z,5.50
2017-04-11T01:32:35.340Z,5.50
2017-04-11T01:33:33.728Z,5.50
2017-04-11T01:34:32.077Z,5.50
2017-04-11T01:35:31.224Z,5.50
2017-04-11T01:36:30.341Z,5.50
2017-04-11T01:37:28.744Z,5.50
2017-04-11T01:38:27.140Z,5.60
2017-04-11T01:39:25.616Z,5.60
2017-04-11T01:40:24.761Z,5.70
2017-04-11T01:41:23.138Z,5.70
2017-04-11T01:42:21.569Z,5.80
2017-04-11T01:43:20.781Z,5.80
2017-04-11T01:44:19.144Z,5.80
2017-04-11T01:45:17.493Z,5.80
2017-04-11T01:46:15.909Z,5.80
2017-04-11T01:47:14.271Z,5.80
2017-04-11T01:48:12.662Z,5.90
2017-04-11T01:49:11.395Z,5.90
2017-04-11T01:50:09.808Z,5.90
2017-04-11T01:51:08.216Z,5.90
2017-04-11T01:52:06.619Z,6.00
2017-04-11T01:53:05.813Z,6.00
2017-04-11T01:54:04.956Z,6.00
2017-04-11T01:55:03.369Z,6.00
2017-04-11T01:56:02.496Z,6.00
2017-04-11T01:57:00.872Z,6.00
2017-04-11T01:57:59.685Z,6.00
2017-04-11T01:58:58.821Z,6.10
2017-04-11T01:59:57.238Z,6.00
2017-04-11T02:00:56.456Z,6.10
2017-04-11T02:01:54.861Z,6.10
2017-04-11T02:02:53.321Z,6.10
2017-04-11T02:03:51.683Z,6.10
2017-04-11T02:04:50.200Z,6.10
2017-04-11T02:05:50.109Z,6.10
2017-04-11T02:06:48.497Z,6.10
2017-04-11T02:07:47.670Z,6.10
2017-04-11T02:08:46.158Z,6.10
2017-04-11T02:09:45.284Z,6.10
2017-04-11T02:10:43.656Z,6.00
2017-04-11T02:11:42.065Z,6.10
2017-04-11T02:12:41.329Z,6.00
2017-04-11T02:13:39.751Z,6.00
2017-04-11T02:14:38.896Z,6.00
2017-04-11T02:15:37.256Z,5.90
2017-04-11T02:16:36.404Z,6.00
2017-04-11T02:17:35.565Z,6.00
2017-04-11T02:18:34.721Z,6.00
2017-04-11T02:19:33.080Z,6.00
2017-04-11T02:20:31.468Z,6.00
2017-04-11T02:21:29.847Z,6.00
2017-04-11T02:22:28.219Z,6.00
2017-04-11T02:23:27.412Z,6.00
2017-04-11T02:24:25.813Z,5.90
2017-04-11T02:25:24.248Z,6.00
2017-04-11T02:26:22.613Z,5.90
2017-04-11T02:27:22.131Z,5.90
2017-04-11T02:28:21.326Z,6.00
2017-04-11T02:29:19.750Z,5.90
2017-04-11T02:30:18.143Z,6.00
2017-04-11T02:31:16.910Z,6.00
2017-04-11T02:32:15.320Z,6.00
2017-04-11T02:33:13.881Z,6.00
2017-04-11T02:34:13.090Z,6.00
2017-04-11T02:35:11.470Z,5.90
2017-04-11T02:36:09.840Z,6.00
2017-04-11T02:37:08.213Z,6.00
2017-04-11T02:38:06.680Z,6.00
2017-04-11T02:39:05.465Z,6.00
2017-04-11T02:40:03.873Z,6.00
2017-04-11T02:41:03.019Z,6.00
2017-04-11T02:42:01.453Z,6.00
2017-04-11T02:43:00.608Z,6.00
2017-04-11T02:43:59.085Z,6.00
2017-04-11T02:44:57.448Z,6.10
2017-04-11T02:45:59.378Z,6.10
2017-04-11T02:46:58.548Z,6.10
2017-04-11T02:47:57.676Z,6.10
2017-04-11T02:48:56.055Z,6.10
2017-04-11T02:49:55.293Z,6.20
2017-04-11T02:50:54.754Z,6.20
2017-04-11T02:51:53.118Z,6.10
2017-04-11T02:52:51.491Z,6.10
2017-04-11T02:53:49.854Z,6.10
2017-04-11T02:54:48.467Z,6.10
2017-04-11T02:55:47.670Z,6.10
2017-04-11T02:56:46.833Z,6.10
2017-04-11T02:57:45.242Z,6.10
2017-04-11T02:58:43.604Z,6.10
2017-04-11T02:59:42.064Z,6.10
2017-04-11T03:00:41.245Z,6.00
2017-04-11T03:01:40.468Z,6.00
2017-04-11T03:02:38.845Z,6.00
2017-04-11T03:03:37.203Z,6.00
2017-04-11T03:04:35.925Z,6.00
2017-04-11T03:05:34.308Z,6.10
2017-04-11T03:06:33.458Z,6.10
2017-04-11T03:07:31.896Z,6.10
2017-04-11T03:08:30.286Z,6.10
2017-04-11T03:09:28.653Z,6.10
2017-04-11T03:10:27.036Z,6.10
2017-04-11T03:11:26.202Z,6.10
2017-04-11T03:12:24.645Z,6.10
2017-04-11T03:13:23.844Z,6.00
2017-04-11T03:14:22.237Z,6.00
2017-04-11T03:15:20.624Z,6.00
2017-04-11T03:16:19.010Z,6.00
2017-04-11T03:17:17.409Z,6.00
2017-04-11T03:18:16.560Z,5.90
2017-04-11T03:19:15.420Z,5.90
2017-04-11T03:20:13.800Z,6.00
2017-04-11T03:21:12.164Z,6.00
2017-04-11T03:22:10.560Z,5.90
2017-04-11T03:23:09.064Z,6.00
2017-04-11T03:24:08.274Z,6.00
2017-04-11T03:25:06.636Z,6.00
2017-04-11T03:26:05.018Z,6.00
2017-04-11T03:27:03.396Z,6.00
2017-04-11T03:28:01.780Z,5.90
2017-04-11T03:29:00.216Z,5.90
2017-04-11T03:29:58.589Z,5.90
2017-04-11T03:30:56.990Z,5.90
2017-04-11T03:31:55.368Z,5.90
2017-04-11T03:32:53.786Z,5.90
2017-04-11T03:33:52.212Z,5.90
2017-04-11T03:34:50.612Z,5.80
2017-04-11T03:35:48.989Z,5.80
2017-04-11T03:36:47.419Z,5.80
2017-04-11T03:37:45.789Z,5.80
2017-04-11T03:38:44.151Z,5.80
2017-04-11T03:39:43.276Z,5.90
2017-04-11T03:40:41.696Z,5.80
2017-04-11T03:41:40.059Z,5.80
2017-04-11T03:42:38.452Z,5.90
2017-04-11T03:43:36.820Z,5.90
2017-04-11T03:44:36.297Z,5.90
2017-04-11T03:45:34.656Z,5.90
2017-04-11T03:46:33.081Z,5.90
2017-04-11T03:47:31.488Z,6.00
2017-04-11T03:48:29.855Z,6.00
2017-04-11T03:49:28.242Z,6.00
2017-04-11T03:50:27.421Z,6.10
2017-04-11T03:51:25.841Z,6.00
2017-04-11T03:52:25.208Z,6.00
2017-04-11T03:53:25.128Z,6.00
2017-04-11T03:54:24.581Z,6.00
2017-04-11T03:55:23.037Z,5.90
2017-04-11T03:56:21.440Z,5.90
2017-04-11T03:57:19.789Z,5.90
2017-04-11T03:58:18.520Z,5.80
2017-04-11T03:59:17.637Z,5.80
2017-04-11T04:00:15.989Z,5.80
2017-04-11T04:01:14.561Z,5.90
2017-04-11T04:02:12.949Z,5.80
2017-04-11T04:03:11.292Z,5.80
2017-04-11T04:04:09.765Z,5.80
2017-04-11T04:05:08.121Z,5.80
2017-04-11T04:06:06.500Z,5.80
2017-04-11T04:07:04.892Z,5.80
2017-04-11T04:08:04.057Z,5.80
2017-04-11T04:09:02.481Z,5.70
2017-04-11T04:10:00.886Z,5.80
2017-04-11T04:11:00.021Z,5.80
2017-04-11T04:11:59.132Z,5.80
2017-04-11T04:12:57.478Z,5.80
2017-04-11T04:13:56.676Z,5.80
2017-04-11T04:14:55.016Z,5.80
2017-04-11T04:15:54.248Z,5.80
2017-04-11T04:16:52.605Z,5.80
2017-04-11T04:17:51.748Z,5.80
2017-04-11T04:18:50.133Z,5.80
2017-04-11T04:19:49.329Z,5.90
2017-04-11T04:20:48.429Z,5.90
2017-04-11T04:21:46.791Z,5.80
2017-04-11T04:22:45.901Z,5.90
2017-04-11T04:23:44.252Z,5.80
2017-04-11T04:24:42.643Z,5.80
2017-04-11T04:25:41.809Z,5.80
2017-04-11T04:26:40.154Z,5.80
2017-04-11T04:27:39.284Z,5.80
2017-04-11T04:28:37.673Z,5.80
2017-04-11T04:29:36.831Z,5.90
2017-04-11T04:30:35.229Z,5.80
2017-04-11T04:31:33.589Z,5.90
2017-04-11T04:32:32.012Z,5.90
2017-04-11T04:33:30.363Z,5.90
2017-04-11T04:35:02.934Z,5.80
2017-04-11T04:36:02.061Z,5.90
2017-04-11T04:37:01.283Z,5.90
2017-04-11T04:38:00.493Z,5.90
2017-04-11T04:38:59.640Z,5.90
2017-04-11T04:39:58.820Z,5.90
2017-04-11T04:40:58.072Z,5.90
2017-04-11T04:41:57.228Z,6.00
2017-04-11T04:42:56.360Z,6.00
2017-04-11T04:43:55.554Z,6.00
2017-04-11T04:44:54.723Z,6.10
2017-04-11T04:45:53.858Z,6.10
2017-04-11T04:46:53.068Z,6.10
2017-04-11T04:47:52.192Z,6.00
2017-04-11T04:48:51.352Z,6.00
2017-04-11T04:49:50.504Z,6.00
2017-04-11T04:50:49.667Z,6.00
2017-04-11T04:51:48.862Z,6.10
2017-04-11T04:52:49.286Z,6.10
2017-04-11T04:53:48.456Z,6.10
2017-04-11T04:54:47.585Z,6.10
2017-04-11T04:55:46.727Z,6.10
2017-04-11T04:56:45.865Z,6.10
2017-04-11T04:57:45.073Z,6.20
2017-04-11T04:58:44.233Z,6.20
2017-04-11T04:59:43.369Z,6.20
2017-04-11T05:00:42.825Z,6.20
2017-04-11T05:01:42.037Z,6.10
2017-04-11T05:02:41.538Z,6.10
2017-04-11T05:03:41.882Z,6.10
2017-04-11T05:04:41.168Z,6.10
2017-04-11T05:05:40.302Z,6.20
2017-04-11T05:06:40.223Z,6.10
2017-04-11T05:07:39.493Z,6.20
2017-04-11T05:08:40.038Z,6.20
2017-04-11T05:09:39.827Z,6.20
2017-04-11T05:10:39.081Z,6.20
2017-04-11T05:11:38.485Z,6.20
2017-04-11T05:12:38.047Z,6.20
2017-04-11T05:13:37.855Z,6.20
2017-04-11T05:14:36.454Z,6.20
2017-04-11T05:15:35.812Z,6.30
2017-04-11T05:16:35.445Z,6.30
2017-04-11T05:17:34.378Z,6.30
2017-04-11T05:18:34.840Z,6.40
2017-04-11T05:19:33.931Z,6.40
2017-04-11T05:20:33.052Z,6.40
2017-04-11T05:21:32.236Z,6.40
2017-04-11T05:22:31.342Z,6.40
2017-04-11T05:23:32.698Z,6.50
2017-04-11T05:24:32.356Z,6.60
2017-04-11T05:25:33.138Z,6.60
2017-04-11T05:26:32.427Z,6.70
2017-04-11T05:27:32.100Z,7.90
2017-04-11T05:28:31.434Z,6.70
2017-04-11T05:29:30.861Z,6.70
2017-04-11T05:30:30.190Z,6.70
2017-04-11T05:31:30.012Z,6.70
2017-04-11T05:32:29.460Z,6.70
2017-04-11T05:33:29.764Z,6.70
2017-04-11T05:34:30.229Z,6.70
2017-04-11T05:35:29.629Z,6.80
2017-04-11T05:36:28.856Z,6.90
2017-04-11T05:37:28.341Z,6.90
2017-04-11T05:38:27.531Z,6.90
2017-04-11T05:39:25.905Z,6.60
2017-04-11T05:40:25.030Z,7.00
2017-04-11T05:41:24.163Z,7.00
2017-04-11T05:42:23.291Z,7.00
2017-04-11T05:43:22.497Z,7.00
2017-04-11T05:44:21.637Z,7.00
2017-04-11T05:45:20.747Z,7.00
2017-04-11T05:46:19.870Z,7.10
2017-04-11T05:47:19.096Z,7.10
2017-04-11T05:48:18.209Z,7.10
2017-04-11T05:49:18.459Z,7.10
2017-04-11T05:50:17.568Z,7.10
2017-04-11T05:51:17.143Z,7.20
2017-04-11T05:52:16.317Z,7.20
2017-04-11T05:53:15.862Z,7.20
2017-04-11T05:54:15.005Z,7.30
2017-04-11T05:55:14.164Z,7.20
2017-04-11T05:56:13.345Z,7.20
2017-04-11T05:57:12.467Z,7.30
2017-04-11T05:58:11.669Z,7.30
2017-04-11T05:59:10.784Z,7.30
2017-04-11T06:00:09.994Z,7.30
2017-04-11T06:01:09.208Z,7.40
2017-04-11T06:02:08.613Z,7.40
2017-04-11T06:03:07.900Z,7.40
2017-04-11T06:04:07.136Z,7.40
2017-04-11T06:05:06.256Z,7.40
2017-04-11T06:06:05.378Z,7.40
2017-04-11T06:07:04.625Z,7.50
2017-04-11T06:08:03.735Z,7.50
2017-04-11T06:09:02.874Z,7.60
2017-04-11T06:10:02.131Z,7.60
2017-04-11T06:11:01.560Z,7.70
2017-04-11T06:12:00.696Z,7.70
2017-04-11T06:12:59.805Z,7.70
2017-04-11T06:13:58.917Z,7.60
2017-04-11T06:14:58.050Z,7.60
2017-04-11T06:15:57.245Z,7.60
2017-04-11T06:16:56.409Z,7.60
2017-04-11T06:17:55.980Z,7.60
2017-04-11T06:18:55.130Z,7.70
2017-04-11T06:19:54.276Z,7.70
2017-04-11T06:20:53.431Z,7.70
2017-04-11T06:21:52.684Z,7.80
2017-04-11T06:22:51.808Z,7.80
2017-04-11T06:23:50.997Z,7.70
2017-04-11T06:24:50.855Z,7.90
2017-04-11T06:25:49.969Z,8.00
2017-04-11T06:26:49.067Z,8.10
2017-04-11T06:27:48.255Z,8.20
2017-04-11T06:28:47.377Z,8.20
2017-04-11T06:29:46.499Z,8.30
2017-04-11T06:30:45.600Z,8.40
2017-04-11T06:31:44.723Z,8.50
2017-04-11T06:32:43.824Z,8.50
2017-04-11T06:33:42.988Z,8.60
2017-04-11T06:34:42.133Z,8.70
2017-04-11T06:35:41.495Z,8.80
2017-04-11T06:36:40.789Z,8.90
2017-04-11T06:37:39.912Z,9.00
2017-04-11T06:38:39.059Z,9.10
2017-04-11T06:39:42.101Z,9.10
2017-04-11T06:40:41.304Z,9.10
2017-04-11T06:41:40.410Z,9.10
2017-04-11T06:42:39.646Z,9.10
2017-04-11T06:43:38.791Z,9.30
2017-04-11T06:44:37.905Z,9.40
2017-04-11T06:45:37.029Z,9.40
2017-04-11T06:46:36.144Z,9.40
2017-04-11T06:47:35.310Z,9.30
2017-04-11T06:48:34.445Z,9.40
2017-04-11T06:49:33.712Z,9.40
2017-04-11T06:50:32.960Z,9.30
2017-04-11T06:51:32.061Z,9.30
2017-04-11T06:52:31.177Z,9.30
2017-04-11T06:53:30.294Z,9.30
2017-04-11T06:54:29.432Z,9.40
2017-04-11T06:55:28.640Z,9.60
2017-04-11T06:56:27.844Z,9.80
2017-04-11T06:57:27.026Z,10.10
2017-04-11T06:58:26.213Z,10.40
2017-04-11T06:59:25.454Z,10.70
2017-04-11T07:00:24.690Z,10.90
2017-04-11T07:01:23.857Z,11.10
2017-04-11T07:02:23.054Z,11.20
2017-04-11T07:03:22.263Z,11.50
2017-04-11T07:04:21.413Z,11.80
2017-04-11T07:05:20.553Z,12.30
2017-04-11T07:06:19.740Z,12.60
2017-04-11T07:07:19.036Z,12.70
2017-04-11T07:08:18.185Z,13.20
2017-04-11T07:09:17.650Z,13.60
2017-04-11T07:10:16.842Z,13.90
2017-04-11T07:11:16.315Z,14.10
2017-04-11T07:12:15.604Z,14.40
2017-04-11T07:13:14.766Z,14.40
2017-04-11T07:14:13.933Z,14.40
2017-04-11T07:15:13.145Z,14.30
2017-04-11T07:16:12.325Z,14.10
2017-04-11T07:17:11.475Z,14.20
2017-04-11T07:18:10.682Z,13.80
2017-04-11T07:19:09.821Z,13.80
2017-04-11T07:20:08.977Z,13.80
2017-04-11T07:21:08.122Z,13.70
2017-04-11T07:22:07.328Z,13.60
2017-04-11T07:23:07.207Z,13.50
2017-04-11T07:24:06.390Z,13.70
2017-04-11T07:25:05.536Z,13.50
2017-04-11T07:26:04.690Z,13.60
2017-04-11T07:27:03.883Z,13.40
2017-04-11T07:28:03.031Z,12.90
2017-04-11T07:29:02.208Z,12.70
2017-04-11T07:30:01.428Z,12.80
2017-04-11T07:31:00.537Z,12.90
2017-04-11T07:31:59.684Z,12.90
2017-04-11T07:32:58.805Z,13.00
2017-04-11T07:33:57.921Z,13.10
2017-04-11T07:34:57.064Z,13.30
2017-04-11T07:35:56.202Z,13.50
2017-04-11T07:36:54.548Z,13.50
2017-04-11T07:37:53.673Z,13.40
2017-04-11T07:38:52.808Z,13.60
2017-04-11T07:39:51.947Z,13.60
2017-04-11T07:40:51.054Z,13.60
2017-04-11T07:41:50.226Z,13.70
2017-04-11T07:42:49.364Z,13.60
2017-04-11T07:43:48.508Z,13.70
2017-04-11T07:44:47.640Z,13.80
2017-04-11T07:45:46.789Z,13.80
2017-04-11T07:46:45.949Z,13.50
2017-04-11T07:47:45.119Z,13.70
2017-04-11T07:48:44.252Z,13.30
2017-04-11T07:49:43.389Z,13.30
2017-04-11T07:50:42.549Z,13.30
2017-04-11T07:51:41.712Z,13.30
2017-04-11T07:52:40.819Z,13.50
2017-04-11T07:53:39.978Z,13.40
2017-04-11T07:54:39.129Z,13.30
2017-04-11T07:55:38.241Z,13.00
2017-04-11T07:56:37.353Z,13.00
2017-04-11T07:57:36.510Z,13.00
2017-04-11T07:58:35.640Z,13.00
2017-04-11T07:59:34.801Z,13.10
2017-04-11T08:00:33.922Z,13.00
2017-04-11T08:01:33.097Z,13.00
2017-04-11T08:02:32.332Z,13.10
2017-04-11T08:03:32.194Z,13.00
2017-04-11T08:04:31.389Z,13.00
2017-04-11T08:05:30.791Z,13.00
2017-04-11T08:06:29.934Z,13.10
2017-04-11T08:07:29.048Z,13.10
2017-04-11T08:08:28.172Z,13.40
2017-04-11T08:09:27.388Z,13.70
2017-04-11T08:10:26.531Z,13.50
2017-04-11T08:11:25.709Z,13.80
2017-04-11T08:12:24.913Z,13.90
2017-04-11T08:13:24.065Z,14.10
2017-04-11T08:14:23.234Z,14.40
2017-04-11T08:15:22.372Z,14.60
2017-04-11T08:16:21.504Z,14.80
2017-04-11T08:17:20.688Z,14.40
2017-04-11T08:18:20.840Z,14.50
2017-04-11T08:19:20.017Z,14.50
2017-04-11T08:20:19.160Z,14.70
2017-04-11T08:21:19.369Z,14.30
2017-04-11T08:22:18.584Z,14.60
2017-04-11T08:23:18.546Z,14.50
2017-04-11T08:24:17.691Z,14.40
2017-04-11T08:25:17.068Z,14.20
2017-04-11T08:26:16.268Z,14.50
2017-04-11T08:27:15.437Z,14.40
2017-04-11T08:28:14.658Z,14.50
2017-04-11T08:29:13.797Z,14.60
2017-04-11T08:30:12.969Z,14.90
2017-04-11T08:31:12.212Z,15.40
2017-04-11T08:32:11.361Z,15.90
2017-04-11T08:33:10.557Z,16.20
2017-04-11T08:34:09.701Z,16.80
2017-04-11T08:35:08.877Z,17.20
2017-04-11T08:36:08.061Z,18.00
2017-04-11T08:37:07.202Z,18.40
2017-04-11T08:38:06.384Z,18.80
2017-04-11T08:39:06.109Z,18.90
2017-04-11T08:40:05.214Z,18.90
2017-04-11T08:41:04.416Z,18.90
2017-04-11T08:42:03.565Z,19.10
2017-04-11T08:43:02.708Z,19.50
2017-04-11T08:44:01.866Z,19.70
2017-04-11T08:45:01.164Z,20.20
2017-04-11T08:46:00.324Z,20.90
2017-04-11T08:46:59.471Z,21.10
2017-04-11T08:47:58.617Z,20.90
2017-04-11T08:48:57.785Z,21.00
2017-04-11T08:49:56.965Z,20.80
2017-04-11T08:50:56.142Z,21.10
2017-04-11T08:51:55.353Z,21.70
2017-04-11T08:52:54.604Z,22.20
2017-04-11T08:56:45.637Z,23.60
2017-04-11T08:57:44.051Z,23.50
2017-04-11T08:58:43.265Z,23.00
2017-04-11T09:00:17.156Z,22.94
2017-04-11T09:00:17.156Z,23.00
2017-04-11T09:01:17.748Z,21.63
2017-04-11T09:01:17.748Z,22.70
2017-04-11T09:02:18.048Z,23.94
2017-04-11T09:02:18.048Z,22.80
2017-04-11T09:03:18.804Z,24.14
2017-04-11T09:03:18.804Z,23.40
2017-04-11T09:04:19.037Z,21.82
2017-04-11T09:04:19.037Z,23.10
2017-04-11T09:05:19.485Z,22.04
2017-04-11T09:05:19.485Z,22.60
2017-04-11T09:06:19.728Z,21.61
2017-04-11T09:06:19.728Z,22.40
2017-04-11T09:07:20.341Z,20.79
2017-04-11T09:07:20.341Z,22.00
2017-04-11T09:08:20.597Z,20.25
2017-04-11T09:08:20.597Z,21.50
2017-04-11T09:09:20.910Z,20.43
2017-04-11T09:09:20.910Z,21.40
2017-04-11T09:10:21.189Z,21.24
2017-04-11T09:10:21.189Z,21.30
2017-04-11T09:11:21.801Z,22.37
2017-04-11T09:11:21.801Z,22.10
2017-04-11T09:12:22.285Z,23.53
2017-04-11T09:12:22.285Z,21.40
2017-04-11T09:13:22.874Z,26.21
2017-04-11T09:13:22.874Z,22.60
2017-04-11T09:14:23.466Z,26.74
2017-04-11T09:14:23.466Z,23.40
2017-04-11T09:15:24.031Z,28.23
2017-04-11T09:15:24.031Z,24.00
2017-04-11T09:16:24.542Z,27.35
2017-04-11T09:16:24.542Z,24.60
2017-04-11T09:17:25.045Z,27.24
2017-04-11T09:17:25.045Z,24.70
2017-04-11T09:18:25.620Z,27.27
2017-04-11T09:18:25.620Z,24.80
2017-04-11T09:19:26.383Z,23.75
2017-04-11T09:19:26.383Z,24.70
2017-04-11T09:20:26.995Z,22.73
2017-04-11T09:20:26.995Z,24.10
2017-04-11T09:21:27.837Z,23.77
2017-04-11T09:21:27.837Z,23.50
2017-04-11T09:22:28.154Z,25.70
2017-04-11T09:22:28.154Z,24.40
2017-04-11T09:23:28.422Z,28.07
2017-04-11T09:23:28.422Z,25.10
2017-04-11T09:24:28.659Z,26.99
2017-04-11T09:24:28.659Z,25.50
2017-04-11T09:25:28.909Z,28.27
2017-04-11T09:25:28.909Z,25.60
2017-04-11T09:26:29.180Z,27.30
2017-04-11T09:26:29.180Z,26.30
2017-04-11T09:27:32.491Z,22.61
2017-04-11T09:27:32.491Z,25.40
2017-04-11T09:28:32.824Z,24.61
2017-04-11T09:28:32.824Z,25.10
2017-04-11T09:29:33.277Z,25.90
2017-04-11T09:29:33.278Z,28.19
2017-04-11T09:30:33.578Z,30.92
2017-04-11T09:30:33.578Z,26.60
2017-04-11T09:31:33.845Z,28.93
2017-04-11T09:31:33.845Z,26.80
2017-04-11T09:32:34.137Z,25.88
2017-04-11T09:32:34.137Z,26.50
2017-04-11T09:33:34.437Z,28.96
2017-04-11T09:33:34.437Z,26.60
2017-04-11T09:34:34.749Z,30.34
2017-04-11T09:34:34.749Z,27.60
2017-04-11T09:35:35.021Z,32.42
2017-04-11T09:35:35.021Z,28.10
2017-04-11T09:36:35.292Z,31.83
2017-04-11T09:36:35.292Z,28.50
2017-04-11T09:37:35.735Z,28.51
2017-04-11T09:37:35.735Z,28.70
2017-04-11T09:38:35.990Z,29.60
2017-04-11T09:38:35.990Z,28.50
2017-04-11T09:39:36.279Z,27.80
2017-04-11T09:39:36.280Z,26.70
2017-04-11T09:40:36.724Z,24.93
2017-04-11T09:40:36.724Z,26.70
2017-04-11T09:41:37.013Z,28.15
2017-04-11T09:41:37.013Z,26.60
2017-04-11T09:42:37.254Z,29.86
2017-04-11T09:42:37.254Z,27.00
2017-04-11T09:43:37.507Z,31.60
2017-04-11T09:43:37.507Z,27.50
2017-04-11T09:44:37.773Z,29.78
2017-04-11T09:44:37.773Z,27.60
2017-04-11T09:45:38.019Z,28.32
2017-04-11T09:45:38.019Z,27.30
2017-04-11T09:46:38.249Z,24.21
2017-04-11T09:46:38.249Z,26.30
2017-04-11T09:47:38.497Z,25.75
2017-04-11T09:47:38.497Z,26.20
2017-04-11T09:48:38.899Z,25.76
2017-04-11T09:48:38.899Z,26.20
2017-04-11T09:49:39.350Z,26.97
2017-04-11T09:49:39.350Z,26.10
2017-04-11T09:50:39.720Z,26.85
2017-04-11T09:50:39.720Z,25.80
2017-04-11T09:51:40.236Z,28.73
2017-04-11T09:51:40.236Z,26.10
2017-04-11T09:52:39.906Z,27.36
2017-04-11T09:52:39.906Z,26.10
2017-04-11T09:53:40.182Z,26.61
2017-04-11T09:53:40.182Z,26.00
2017-04-11T09:54:40.415Z,29.92
2017-04-11T09:54:40.415Z,26.50
2017-04-11T09:55:40.976Z,31.28
2017-04-11T09:55:40.976Z,27.20
2017-04-11T09:56:41.250Z,30.23
2017-04-11T09:56:41.250Z,27.30
2017-04-11T09:57:41.722Z,31.19
2017-04-11T09:57:41.722Z,27.80
2017-04-11T09:58:42.160Z,32.07
2017-04-11T09:58:42.160Z,28.50
2017-04-11T09:59:43.100Z,32.34
2017-04-11T09:59:43.100Z,28.90
2017-04-11T10:00:43.322Z,32.57
2017-04-11T10:00:43.322Z,29.10
2017-04-11T10:01:43.921Z,29.19
2017-04-11T10:01:43.921Z,28.30
2017-04-11T10:02:44.195Z,27.14
2017-04-11T10:02:44.195Z,27.60
2017-04-11T10:03:45.165Z,28.07
2017-04-11T10:03:45.165Z,27.50
2017-04-11T10:04:45.411Z,24.86
2017-04-11T10:04:45.411Z,26.90
2017-04-11T10:05:45.653Z,25.40
2017-04-11T10:05:45.653Z,26.00
2017-04-11T10:06:45.881Z,23.47
2017-04-11T10:06:45.881Z,25.10
2017-04-11T10:07:46.171Z,19.02
2017-04-11T10:07:46.171Z,23.10
2017-04-11T10:08:46.401Z,21.30
2017-04-11T10:08:46.402Z,18.69
2017-04-11T10:09:46.647Z,18.26
2017-04-11T10:09:46.647Z,20.60
2017-04-11T10:10:46.880Z,17.85
2017-04-11T10:10:46.880Z,19.70
2017-04-11T10:11:47.145Z,16.58
2017-04-11T10:11:47.145Z,18.70
2017-04-11T10:12:47.454Z,15.62
2017-04-11T10:12:47.454Z,17.70
2017-04-11T10:13:47.695Z,16.90
2017-04-11T10:13:47.695Z,17.20
2017-04-11T10:14:47.892Z,17.43
2017-04-11T10:14:47.892Z,17.40
2017-04-11T10:15:48.150Z,17.14
2017-04-11T10:15:48.150Z,17.10
2017-04-11T10:16:48.460Z,18.90
2017-04-11T10:16:48.460Z,17.50
2017-04-11T10:17:49.931Z,21.04
2017-04-11T10:17:49.931Z,18.30
2017-04-11T10:18:50.226Z,22.57
2017-04-11T10:18:50.226Z,19.30
2017-04-11T10:19:50.477Z,22.15
2017-04-11T10:19:50.477Z,20.20
2017-04-11T10:20:50.742Z,21.91
2017-04-11T10:20:50.742Z,20.80
2017-04-11T10:21:51.006Z,23.71
2017-04-11T10:21:51.006Z,21.40
2017-04-11T10:22:51.299Z,25.85
2017-04-11T10:22:51.299Z,22.20
2017-04-11T10:23:51.550Z,27.65
2017-04-11T10:23:51.550Z,23.20
2017-04-11T10:24:52.579Z,28.04
2017-04-11T10:24:52.579Z,23.90
2017-04-11T10:25:53.091Z,26.21
2017-04-11T10:25:53.091Z,24.00
2017-04-11T10:26:54.437Z,26.58
2017-04-11T10:26:54.437Z,24.50
2017-04-11T10:27:54.905Z,25.30
2017-04-11T10:27:54.905Z,24.60
2017-04-11T10:28:55.165Z,26.86
2017-04-11T10:28:55.165Z,25.00
2017-04-11T10:29:55.433Z,26.81
2017-04-11T10:29:55.433Z,25.10
2017-04-11T10:30:55.887Z,25.28
2017-04-11T10:30:55.887Z,25.20
2017-04-11T10:31:56.201Z,25.54
2017-04-11T10:31:56.201Z,24.80
2017-04-11T10:32:56.749Z,24.50
2017-04-11T10:32:56.749Z,24.70
2017-04-11T10:33:57.082Z,24.88
2017-04-11T10:33:57.082Z,24.90
2017-04-11T10:34:57.364Z,26.41
2017-04-11T10:34:57.364Z,25.10
2017-04-11T10:35:57.668Z,27.40
2017-04-11T10:35:57.668Z,25.30
2017-04-11T10:36:57.966Z,23.67
2017-04-11T10:36:57.966Z,24.60
2017-04-11T10:37:58.284Z,21.39
2017-04-11T10:37:58.284Z,23.50
2017-04-11T10:38:58.566Z,23.83
2017-04-11T10:38:58.566Z,23.30
2017-04-11T10:39:58.846Z,24.73
2017-04-11T10:39:58.846Z,23.60
2017-04-11T10:40:59.079Z,24.09
2017-04-11T10:40:59.079Z,24.30
2017-04-11T10:41:59.327Z,20.55
2017-04-11T10:41:59.327Z,22.70
2017-04-11T10:42:59.666Z,21.56
2017-04-11T10:42:59.666Z,22.30
2017-04-11T10:43:59.922Z,20.28
2017-04-11T10:43:59.922Z,21.80
2017-04-11T10:45:00.228Z,23.48
2017-04-11T10:45:00.228Z,22.10
2017-04-11T10:46:00.504Z,23.59
2017-04-11T10:46:00.504Z,22.40
2017-04-11T10:47:00.778Z,23.48
2017-04-11T10:47:00.778Z,22.90
2017-04-11T10:48:01.050Z,23.77
2017-04-11T10:48:01.050Z,23.10
2017-04-11T10:49:01.567Z,23.89
2017-04-11T10:49:01.567Z,23.30
2017-04-11T10:50:01.970Z,20.83
2017-04-11T10:50:01.970Z,22.60
2017-04-11T10:51:02.208Z,21.38
2017-04-11T10:51:02.208Z,22.10
2017-04-11T10:52:02.469Z,23.12
2017-04-11T10:52:02.469Z,22.40
2017-04-11T10:53:02.786Z,22.50
2017-04-11T10:53:02.786Z,22.20
2017-04-11T10:54:03.036Z,23.75
2017-04-11T10:54:03.036Z,22.50
2017-04-11T10:55:03.293Z,23.84
2017-04-11T10:55:03.293Z,22.60
2017-04-11T10:56:03.540Z,22.46
2017-04-11T10:56:03.540Z,22.60
2017-04-11T10:57:03.817Z,19.88
2017-04-11T10:57:03.817Z,21.70
2017-04-11T10:58:04.238Z,18.74
2017-04-11T10:58:04.238Z,20.60
2017-04-11T10:59:04.534Z,16.85
2017-04-11T10:59:04.534Z,19.40
2017-04-11T11:00:05.097Z,16.18
2017-04-11T11:00:05.097Z,18.10
2017-04-11T11:01:05.606Z,16.17
2017-04-11T11:01:05.606Z,17.40
2017-04-11T11:02:06.133Z,17.14